createdAt,value
2017-01-01T00:00:26.268Z,-1.88
2017-01-01T00:01:26.291Z,-1.9
2017-01-01T00:02:26.385Z,-1.86
2017-01-01T00:03:26.389Z,-1.92
2017-01-01T00:04:26.236Z,-1.93
2017-01-01T00:05:26.345Z,-1.88
2017-01-01T00:06:26.269Z,-1.93
2017-01-01T00:07:26.340Z,-1.96
2017-01-01T00:08:26.428Z,-1.95
2017-01-01T00:09:26.455Z,-2.01
2017-01-01T00:10:26.473Z,-1.98
2017-01-01T00:11:26.212Z,-2.03
2017-01-01T00:12:26.356Z,-2.01
2017-01-01T00:13:26.337Z,-2.01
2017-01-01T00:14:26.275Z,-2.13
2017-01-01T00:15:26.412Z,-2.04
2017-01-01T00:16:26.316Z,-1.98
2017-01-01T00:17:26.362Z,-2.06
2017-01-01T00:18:26.310Z,-2.06
2017-01-01T00:19:26.276Z,-2.24
2017-01-01T00:20:26.244Z,-2.13
2017-01-01T00:21:26.395Z,-2.13
2017-01-01T00:22:26.213Z,-2.03
2017-01-01T00:23:26.168Z,-2.16
2017-01-01T00:24:26.241Z,-2.14
2017-01-01T00:25:26.387Z,-2.25
2017-01-01T00:26:26.467Z,-2.28
2017-01-01T00:27:26.429Z,-2.18
2017-01-01T00:28:26.238Z,-2.24
2017-01-01T00:29:26.347Z,-2.19
2017-01-01T00:30:26.511Z,-2.19
2017-01-01T00:31:26.190Z,-2.18
2017-01-01T00:32:26.248Z,-2.19
2017-01-01T00:33:26.314Z,-2.18
2017-01-01T00:34:36.299Z,-2.21
2017-01-01T00:35:26.455Z,-2.22
2017-01-01T00:36:26.248Z,-2.24
2017-01-01T00:37:26.354Z,-2.24
2017-01-01T00:38:26.307Z,-2.21
2017-01-01T00:39:26.080Z,-2.19
2017-01-01T00:40:26.318Z,-2.19
2017-01-01T00:41:26.133Z,-2.14
2017-01-01T00:42:26.224Z,-2.16
2017-01-01T00:43:26.145Z,-2.16
2017-01-01T00:44:26.323Z,-2.19
2017-01-01T00:45:26.273Z,-2.13
2017-01-01T00:46:26.240Z,-2.03
2017-01-01T00:47:26.327Z,-2.08
2017-01-01T00:48:26.438Z,-2.08
2017-01-01T00:49:26.969Z,-2.04
2017-01-01T00:50:26.544Z,-1.98
2017-01-01T00:51:26.578Z,-1.98
2017-01-01T00:52:26.276Z,-1.96
2017-01-01T00:53:26.330Z,-2
2017-01-01T00:54:26.833Z,-1.92
2017-01-01T00:55:26.324Z,-1.88
2017-01-01T00:56:26.314Z,-1.9
2017-01-01T00:57:26.307Z,-1.82
2017-01-01T00:58:26.285Z,-1.85
2017-01-01T00:59:26.392Z,-1.83
2017-01-01T01:00:26.335Z,-1.78
2017-01-01T01:01:26.333Z,-1.75
2017-01-01T01:02:26.148Z,-1.67
2017-01-01T01:03:26.313Z,-1.8
2017-01-01T01:04:26.248Z,-1.72
2017-01-01T01:05:26.200Z,-1.68
2017-01-01T01:06:26.290Z,-1.7
2017-01-01T01:07:26.197Z,-1.64
2017-01-01T01:08:26.390Z,-1.65
2017-01-01T01:09:26.423Z,-1.65
2017-01-01T01:10:26.257Z,-1.62
2017-01-01T01:11:26.358Z,-1.67
2017-01-01T01:12:26.254Z,-1.62
2017-01-01T01:13:26.447Z,-1.61
2017-01-01T01:14:26.486Z,-1.53
2017-01-01T01:15:26.458Z,-1.47
2017-01-01T01:16:26.473Z,-1.56
2017-01-01T01:17:26.244Z,-1.57
2017-01-01T01:18:26.461Z,-1.56
2017-01-01T01:19:26.181Z,-1.49
2017-01-01T01:20:26.324Z,-1.47
2017-01-01T01:21:26.335Z,-1.51
2017-01-01T01:22:26.324Z,-1.5
2017-01-01T01:26:55.817Z,-1.43
2017-01-01T01:27:55.845Z,-1.43
2017-01-01T01:28:55.695Z,-1.39
2017-01-01T01:29:55.881Z,-1.46
2017-01-01T01:30:55.783Z,-1.54
2017-01-01T01:31:55.964Z,-1.56
2017-01-01T01:32:55.723Z,-1.43
2017-01-01T01:33:55.743Z,-1.43
2017-01-01T01:34:56.842Z,-1.46
2017-01-01T01:35:56.029Z,-1.46
2017-01-01T01:36:55.963Z,-1.47
2017-01-01T01:37:55.835Z,-1.43
2017-01-01T01:38:55.727Z,-1.49
2017-01-01T01:39:55.846Z,-1.41
2017-01-01T01:40:56.467Z,-1.39
2017-01-01T01:41:55.911Z,-1.43
2017-01-01T01:42:55.884Z,-1.49
2017-01-01T01:43:55.827Z,-1.32
2017-01-01T01:44:55.871Z,-1.44
2017-01-01T01:45:55.666Z,-1.36
2017-01-01T01:46:55.815Z,-1.36
2017-01-01T01:47:55.753Z,-1.32
2017-01-01T01:48:55.819Z,-1.38
2017-01-01T01:49:55.860Z,-1.31
2017-01-01T01:50:55.757Z,-1.31
2017-01-01T01:51:55.796Z,-1.36
2017-01-01T01:52:55.892Z,-1.33
2017-01-01T01:53:55.941Z,-1.33
2017-01-01T01:54:55.719Z,-1.33
2017-01-01T01:55:55.753Z,-1.38
2017-01-01T01:56:55.795Z,-1.39
2017-01-01T01:57:55.736Z,-1.33
2017-01-01T01:58:55.827Z,-1.35
2017-01-01T02:03:25.579Z,-1.23
2017-01-01T02:04:25.617Z,-1.31
2017-01-01T02:05:25.696Z,-1.31
2017-01-01T02:06:25.525Z,-1.26
2017-01-01T02:07:25.514Z,-1.31
2017-01-01T02:08:25.580Z,-1.23
2017-01-01T02:09:25.604Z,-1.25
2017-01-01T02:10:25.538Z,-1.28
2017-01-01T02:11:25.534Z,-1.23
2017-01-01T02:12:25.481Z,-1.23
2017-01-01T02:13:25.602Z,-1.2
2017-01-01T02:14:25.521Z,-1.21
2017-01-01T02:15:25.543Z,-1.23
2017-01-01T02:16:25.519Z,-1.13
2017-01-01T02:17:25.599Z,-1.15
2017-01-01T02:18:25.590Z,-1.15
2017-01-01T02:19:25.612Z,-1.14
2017-01-01T02:20:25.431Z,-1.17
2017-01-01T02:21:25.696Z,-1.15
2017-01-01T02:22:25.576Z,-1.26
2017-01-01T02:23:25.615Z,-1.11
2017-01-01T02:24:25.619Z,-1.03
2017-01-01T02:25:25.500Z,-1.1
2017-01-01T02:26:25.610Z,-1.1
2017-01-01T02:27:25.553Z,-1.13
2017-01-01T02:28:25.591Z,-1.1
2017-01-01T02:29:25.562Z,-1.1
2017-01-01T02:30:27.570Z,-1.1
2017-01-01T02:31:25.530Z,-1.14
2017-01-01T02:32:25.553Z,-1.14
2017-01-01T02:33:25.589Z,-1.17
2017-01-01T02:34:25.573Z,-1.08
2017-01-01T02:35:25.447Z,-1.14
2017-01-01T02:36:25.663Z,-1.11
2017-01-01T02:37:25.456Z,-1.13
2017-01-01T02:38:25.543Z,-1.21
2017-01-01T02:39:25.576Z,-1.26
2017-01-01T02:40:25.470Z,-1.18
2017-01-01T02:41:25.607Z,-1.25
2017-01-01T02:42:25.590Z,-1.23
2017-01-01T02:43:25.654Z,-1.2
2017-01-01T02:44:25.625Z,-1.23
2017-01-01T02:45:25.677Z,-1.21
2017-01-01T02:46:25.617Z,-1.17
2017-01-01T02:47:25.576Z,-1.21
2017-01-01T02:48:25.597Z,-1.18
2017-01-01T02:49:25.529Z,-1.17
2017-01-01T02:50:25.579Z,-1.17
2017-01-01T02:51:25.755Z,-1.18
2017-01-01T02:52:25.586Z,-1.17
2017-01-01T02:53:25.740Z,-1.17
2017-01-01T02:54:25.591Z,-1.21
2017-01-01T02:55:25.557Z,-1.21
2017-01-01T02:56:25.599Z,-1.15
2017-01-01T02:57:25.543Z,-1.13
2017-01-01T02:58:25.575Z,-1.14
2017-01-01T02:59:25.627Z,-1.18
2017-01-01T03:00:25.656Z,-1.2
2017-01-01T03:01:25.624Z,-1.15
2017-01-01T03:02:25.501Z,-1.18
2017-01-01T03:03:25.570Z,-1.21
2017-01-01T03:04:27.582Z,-1.26
2017-01-01T03:05:25.614Z,-1.17
2017-01-01T03:06:25.547Z,-1.26
2017-01-01T03:07:25.773Z,-1.26
2017-01-01T03:08:25.680Z,-1.33
2017-01-01T03:09:25.649Z,-1.29
2017-01-01T03:10:25.626Z,-1.23
2017-01-01T03:11:25.578Z,-1.21
2017-01-01T03:12:25.625Z,-1.29
2017-01-01T03:13:25.615Z,-1.31
2017-01-01T03:14:25.534Z,-1.29
2017-01-01T03:15:25.505Z,-1.25
2017-01-01T03:16:25.547Z,-1.23
2017-01-01T03:17:25.626Z,-1.21
2017-01-01T03:18:25.614Z,-1.18
2017-01-01T03:19:25.627Z,-1.23
2017-01-01T03:20:25.575Z,-1.26
2017-01-01T03:21:25.698Z,-1.23
2017-01-01T03:22:25.534Z,-1.29
2017-01-01T03:23:25.652Z,-1.26
2017-01-01T03:24:25.678Z,-1.31
2017-01-01T03:25:25.685Z,-1.28
2017-01-01T03:26:25.633Z,-1.28
2017-01-01T03:27:25.618Z,-1.26
2017-01-01T03:28:25.612Z,-1.15
2017-01-01T03:29:25.815Z,-1.23
2017-01-01T03:30:25.546Z,-1.17
2017-01-01T03:31:25.583Z,-1.15
2017-01-01T03:32:25.640Z,-1.18
2017-01-01T03:33:25.723Z,-1.26
2017-01-01T03:34:25.567Z,-1.25
2017-01-01T03:35:25.532Z,-1.18
2017-01-01T03:36:25.582Z,-1.31
2017-01-01T03:37:25.791Z,-1.25
2017-01-01T03:38:25.683Z,-1.31
2017-01-01T03:39:25.599Z,-1.33
2017-01-01T03:40:25.523Z,-1.36
2017-01-01T03:41:25.668Z,-1.33
2017-01-01T03:42:25.532Z,-1.32
2017-01-01T03:43:25.682Z,-1.35
2017-01-01T03:44:25.683Z,-1.35
2017-01-01T03:45:25.691Z,-1.35
2017-01-01T03:46:25.550Z,-1.35
2017-01-01T03:47:25.521Z,-1.44
2017-01-01T03:48:25.584Z,-1.44
2017-01-01T03:49:25.632Z,-1.33
2017-01-01T03:50:25.531Z,-1.33
2017-01-01T03:51:25.645Z,-1.38
2017-01-01T03:52:25.511Z,-1.44
2017-01-01T03:53:25.611Z,-1.43
2017-01-01T03:54:25.566Z,-1.43
2017-01-01T03:55:25.537Z,-1.46
2017-01-01T03:56:25.518Z,-1.41
2017-01-01T03:57:25.610Z,-1.44
2017-01-01T03:58:25.617Z,-1.44
2017-01-01T03:59:25.521Z,-1.44
2017-01-01T04:00:25.612Z,-1.38
2017-01-01T04:01:25.530Z,-1.41
2017-01-01T04:02:25.572Z,-1.32
2017-01-01T04:03:25.756Z,-1.32
2017-01-01T04:04:25.577Z,-1.33
2017-01-01T04:05:25.542Z,-1.33
2017-01-01T04:06:25.548Z,-1.32
2017-01-01T04:07:25.715Z,-1.32
2017-01-01T04:08:25.578Z,-1.28
2017-01-01T04:09:25.620Z,-1.26
2017-01-01T04:10:25.574Z,-1.26
2017-01-01T04:11:25.597Z,-1.15
2017-01-01T04:12:25.619Z,-1.23
2017-01-01T04:13:25.705Z,-1.17
2017-01-01T04:14:25.598Z,-1.25
2017-01-01T04:15:25.719Z,-1.15
2017-01-01T04:16:25.587Z,-1.21
2017-01-01T04:17:25.569Z,-1.35
2017-01-01T04:18:25.601Z,-1.28
2017-01-01T04:19:25.569Z,-1.25
2017-01-01T04:20:25.633Z,-1.26
2017-01-01T04:21:25.627Z,-1.18
2017-01-01T04:22:25.586Z,-1.18
2017-01-01T04:23:25.757Z,-1.18
2017-01-01T04:24:26.074Z,-1.21
2017-01-01T04:25:25.734Z,-1.18
2017-01-01T04:26:25.546Z,-1.29
2017-01-01T04:27:25.617Z,-1.23
2017-01-01T04:28:25.586Z,-1.23
2017-01-01T04:29:25.792Z,-1.14
2017-01-01T04:30:26.306Z,-1.14
2017-01-01T04:31:25.797Z,-1.25
2017-01-01T04:32:26.324Z,-1.2
2017-01-01T04:33:25.766Z,-1.21
2017-01-01T04:34:25.547Z,-1.18
2017-01-01T04:35:25.651Z,-1.14
2017-01-01T04:36:25.572Z,-1.26
2017-01-01T04:37:25.643Z,-1.18
2017-01-01T04:38:25.652Z,-1.17
2017-01-01T04:39:25.575Z,-1.21
2017-01-01T04:40:25.557Z,-1.13
2017-01-01T04:41:25.716Z,-1.2
2017-01-01T04:42:25.707Z,-1.14
2017-01-01T04:43:25.699Z,-1.21
2017-01-01T04:44:25.604Z,-1.13
2017-01-01T04:45:25.728Z,-1.17
2017-01-01T04:46:25.787Z,-1.17
2017-01-01T04:47:25.737Z,-1.15
2017-01-01T04:48:26.141Z,-1.13
2017-01-01T04:49:25.666Z,-1.18
2017-01-01T04:50:25.608Z,-1.1
2017-01-01T04:51:25.730Z,-1.15
2017-01-01T04:52:25.622Z,-1.14
2017-01-01T04:53:25.757Z,-1.1
2017-01-01T04:54:25.709Z,-0.99
2017-01-01T04:55:25.663Z,-1.03
2017-01-01T04:56:25.609Z,-1.11
2017-01-01T04:57:25.633Z,-1.07
2017-01-01T04:58:25.678Z,-1.11
2017-01-01T04:59:25.659Z,-1.15
2017-01-01T05:00:25.589Z,-1.07
2017-01-01T05:01:25.711Z,-1.05
2017-01-01T05:02:25.587Z,-1.05
2017-01-01T05:03:25.771Z,-1.13
2017-01-01T05:04:25.659Z,-1.17
2017-01-01T05:05:25.738Z,-1.14
2017-01-01T05:06:25.617Z,-1.14
2017-01-01T05:07:25.676Z,-1.14
2017-01-01T05:08:25.684Z,-1.05
2017-01-01T05:09:25.726Z,-1.08
2017-01-01T05:10:25.719Z,-1.02
2017-01-01T05:11:25.628Z,-0.99
2017-01-01T05:12:25.683Z,-0.95
2017-01-01T05:13:25.698Z,-1.02
2017-01-01T05:14:25.608Z,-0.99
2017-01-01T05:15:25.591Z,-1
2017-01-01T05:16:25.638Z,-1.05
2017-01-01T05:17:25.609Z,-1.07
2017-01-01T05:18:25.681Z,-1.03
2017-01-01T05:19:25.771Z,-1.05
2017-01-01T05:20:25.729Z,-1.03
2017-01-01T05:21:25.817Z,-1.03
2017-01-01T05:22:25.695Z,-0.97
2017-01-01T05:23:25.864Z,-1.02
2017-01-01T05:24:25.673Z,-0.95
2017-01-01T05:25:25.646Z,-1.03
2017-01-01T05:26:25.659Z,-1.02
2017-01-01T05:27:25.754Z,-1
2017-01-01T05:28:25.718Z,-1.03
2017-01-01T05:29:25.710Z,-1.03
2017-01-01T05:30:25.664Z,-1.05
2017-01-01T05:31:25.631Z,-1.11
2017-01-01T05:32:25.738Z,-1.07
2017-01-01T05:33:25.693Z,-1.02
2017-01-01T05:34:25.680Z,-1.05
2017-01-01T05:35:25.765Z,-1.08
2017-01-01T05:36:25.699Z,-1.07
2017-01-01T05:37:25.708Z,-1.05
2017-01-01T05:38:25.711Z,-0.99
2017-01-01T05:39:25.658Z,-1.02
2017-01-01T05:40:25.713Z,-0.97
2017-01-01T05:41:25.698Z,-0.96
2017-01-01T05:42:25.659Z,-1.02
2017-01-01T05:43:25.711Z,-0.96
2017-01-01T05:44:25.732Z,-1.02
2017-01-01T05:45:25.802Z,-1.02
2017-01-01T05:46:25.729Z,-1.07
2017-01-01T05:47:25.767Z,-1.03
2017-01-01T05:48:25.721Z,-1.02
2017-01-01T05:49:25.808Z,-1.02
2017-01-01T05:50:25.687Z,-1.05
2017-01-01T05:51:25.876Z,-1.02
2017-01-01T05:52:25.719Z,-1.11
2017-01-01T05:53:25.800Z,-1.13
2017-01-01T05:54:25.708Z,-1
2017-01-01T05:55:25.724Z,-0.99
2017-01-01T05:56:25.686Z,-0.96
2017-01-01T05:57:25.687Z,-1.07
2017-01-01T05:58:25.761Z,-1
2017-01-01T05:59:25.817Z,-1.02
2017-01-01T06:00:25.707Z,-1.11
2017-01-01T06:01:25.821Z,-1
2017-01-01T06:02:25.748Z,-0.92
2017-01-01T06:03:25.821Z,-0.99
2017-01-01T06:04:25.767Z,-1
2017-01-01T06:05:25.832Z,-1
2017-01-01T06:06:25.749Z,-1
2017-01-01T06:07:25.764Z,-1
2017-01-01T06:08:25.776Z,-1
2017-01-01T06:09:25.891Z,-1.03
2017-01-01T06:10:25.667Z,-0.96
2017-01-01T06:11:25.736Z,-1.02
2017-01-01T06:12:25.735Z,-0.99
2017-01-01T06:13:25.831Z,-1.13
2017-01-01T06:14:25.842Z,-1.07
2017-01-01T06:15:25.881Z,-1.13
2017-01-01T06:16:25.731Z,-1.1
2017-01-01T06:17:25.668Z,-0.99
2017-01-01T06:18:25.769Z,-1
2017-01-01T06:19:25.825Z,-1.13
2017-01-01T06:20:25.819Z,-1.11
2017-01-01T06:21:25.744Z,-1
2017-01-01T06:22:25.859Z,-1.11
2017-01-01T06:23:25.704Z,-0.96
2017-01-01T06:24:25.710Z,-1.02
2017-01-01T06:25:25.786Z,-0.99
2017-01-01T06:26:25.776Z,-1
2017-01-01T06:27:25.799Z,-1.03
2017-01-01T06:28:25.781Z,-0.97
2017-01-01T06:29:25.800Z,-0.9
2017-01-01T06:30:25.745Z,-1.02
2017-01-01T06:31:25.809Z,-1
2017-01-01T06:32:25.750Z,-1
2017-01-01T06:33:25.727Z,-0.99
2017-01-01T06:34:25.774Z,-1
2017-01-01T06:35:25.750Z,-1.02
2017-01-01T06:36:25.749Z,-1.02
2017-01-01T06:37:25.827Z,-0.89
2017-01-01T06:38:25.740Z,-0.97
2017-01-01T06:39:25.729Z,-0.97
2017-01-01T06:40:25.756Z,-0.96
2017-01-01T06:41:25.809Z,-0.97
2017-01-01T06:42:25.742Z,-0.93
2017-01-01T06:43:25.783Z,-0.93
2017-01-01T06:44:25.777Z,-0.97
2017-01-01T06:45:25.854Z,-0.9
2017-01-01T06:46:25.764Z,-0.96
2017-01-01T06:47:25.869Z,-0.9
2017-01-01T06:48:25.823Z,-0.89
2017-01-01T06:49:25.863Z,-0.97
2017-01-01T06:50:25.848Z,-0.93
2017-01-01T06:51:25.940Z,-0.9
2017-01-01T06:52:25.740Z,-0.99
2017-01-01T06:53:26.415Z,-0.95
2017-01-01T06:54:25.819Z,-0.9
2017-01-01T06:55:25.814Z,-0.9
2017-01-01T06:56:25.810Z,-0.96
2017-01-01T06:57:25.896Z,-0.86
2017-01-01T06:58:25.872Z,-0.92
2017-01-01T06:59:25.958Z,-0.81
2017-01-01T07:00:25.840Z,-0.78
2017-01-01T07:01:25.955Z,-0.78
2017-01-01T07:02:25.897Z,-0.8
2017-01-01T07:03:25.853Z,-0.8
2017-01-01T07:04:25.862Z,-0.85
2017-01-01T07:05:25.891Z,-0.77
2017-01-01T07:06:25.816Z,-0.83
2017-01-01T07:07:25.830Z,-0.83
2017-01-01T07:08:25.859Z,-0.8
2017-01-01T07:09:25.843Z,-0.81
2017-01-01T07:10:25.762Z,-0.74
2017-01-01T07:11:25.853Z,-0.83
2017-01-01T07:12:25.819Z,-0.83
2017-01-01T07:13:25.850Z,-0.8
2017-01-01T07:14:25.775Z,-0.85
2017-01-01T07:15:25.716Z,-0.83
2017-01-01T07:16:25.828Z,-0.77
2017-01-01T07:17:26.015Z,-0.85
2017-01-01T07:18:25.763Z,-0.73
2017-01-01T07:19:25.884Z,-0.81
2017-01-01T07:20:25.780Z,-0.81
2017-01-01T07:21:25.920Z,-0.7
2017-01-01T07:22:25.777Z,-0.8
2017-01-01T07:23:25.904Z,-0.74
2017-01-01T07:24:25.801Z,-0.74
2017-01-01T07:25:25.959Z,-0.7
2017-01-01T07:26:25.788Z,-0.74
2017-01-01T07:27:25.869Z,-0.77
2017-01-01T07:28:25.805Z,-0.77
2017-01-01T07:29:25.999Z,-0.65
2017-01-01T07:30:25.879Z,-0.67
2017-01-01T07:31:25.899Z,-0.74
2017-01-01T07:32:25.829Z,-0.71
2017-01-01T07:33:25.931Z,-0.7
2017-01-01T07:34:25.909Z,-0.7
2017-01-01T07:35:25.967Z,-0.7
2017-01-01T07:36:25.878Z,-0.71
2017-01-01T07:37:25.877Z,-0.71
2017-01-01T07:38:25.993Z,-0.73
2017-01-01T07:39:25.936Z,-0.74
2017-01-01T07:40:25.886Z,-0.73
2017-01-01T07:41:26.004Z,-0.6
2017-01-01T07:42:25.889Z,-0.59
2017-01-01T07:43:26.018Z,-0.63
2017-01-01T07:44:25.831Z,-0.62
2017-01-01T07:45:25.928Z,-0.59
2017-01-01T07:46:25.841Z,-0.6
2017-01-01T07:47:25.993Z,-0.62
2017-01-01T07:48:25.913Z,-0.65
2017-01-01T07:49:25.965Z,-0.6
2017-01-01T07:50:26.551Z,-0.63
2017-01-01T07:51:25.939Z,-0.65
2017-01-01T07:52:25.864Z,-0.6
2017-01-01T07:53:25.906Z,-0.7
2017-01-01T07:54:25.896Z,-0.63
2017-01-01T07:55:25.928Z,-0.59
2017-01-01T07:56:25.775Z,-0.63
2017-01-01T07:57:27.257Z,-0.59
2017-01-01T07:58:25.861Z,-0.59
2017-01-01T07:59:26.056Z,-0.55
2017-01-01T08:00:25.930Z,-0.56
2017-01-01T08:01:25.920Z,-0.58
2017-01-01T08:02:25.911Z,-0.47
2017-01-01T08:03:25.912Z,-0.6
2017-01-01T08:04:25.858Z,-0.58
2017-01-01T08:05:25.989Z,-0.6
2017-01-01T08:06:25.937Z,-0.53
2017-01-01T08:07:25.922Z,-0.58
2017-01-01T08:08:25.999Z,-0.59
2017-01-01T08:09:26.041Z,-0.5
2017-01-01T08:10:25.818Z,-0.5
2017-01-01T08:11:25.999Z,-0.58
2017-01-01T08:12:25.869Z,-0.53
2017-01-01T08:13:25.949Z,-0.5
2017-01-01T08:14:25.968Z,-0.52
2017-01-01T08:15:25.848Z,-0.5
2017-01-01T08:16:25.928Z,-0.53
2017-01-01T08:17:26.066Z,-0.45
2017-01-01T08:18:25.943Z,-0.45
2017-01-01T08:19:25.943Z,-0.42
2017-01-01T08:20:25.884Z,-0.42
2017-01-01T08:21:26.049Z,-0.47
2017-01-01T08:22:25.998Z,-0.49
2017-01-01T08:23:26.180Z,-0.45
2017-01-01T08:24:26.469Z,-0.44
2017-01-01T08:25:25.941Z,-0.47
2017-01-01T08:26:26.742Z,-0.38
2017-01-01T08:27:26.035Z,-0.42
2017-01-01T08:28:26.093Z,-0.34
2017-01-01T08:29:25.915Z,-0.35
2017-01-01T08:30:26.052Z,-0.3
2017-01-01T08:31:25.980Z,-0.27
2017-01-01T08:32:25.922Z,-0.31
2017-01-01T08:33:25.969Z,-0.21
2017-01-01T08:34:25.928Z,-0.19
2017-01-01T08:35:25.861Z,-0.2
2017-01-01T08:36:25.848Z,-0.24
2017-01-01T08:37:25.999Z,-0.26
2017-01-01T08:38:25.868Z,-0.16
2017-01-01T08:39:26.027Z,-0.14
2017-01-01T08:40:25.933Z,-0.16
2017-01-01T08:41:25.956Z,-0.12
2017-01-01T08:42:25.916Z,-0.12
2017-01-01T08:43:26.015Z,-0.08
2017-01-01T08:44:25.937Z,-0.13
2017-01-01T08:45:25.922Z,-0.08
2017-01-01T08:46:25.963Z,-0.06
2017-01-01T08:47:25.940Z,-0.09
2017-01-01T08:48:26.018Z,-0.05
2017-01-01T08:49:25.912Z,-0.01
2017-01-01T08:50:25.896Z,0.07
2017-01-01T08:51:26.091Z,-0.03
2017-01-01T08:52:26.035Z,0.02
2017-01-01T08:53:26.442Z,0.07
2017-01-01T08:54:26.223Z,0.08
2017-01-01T08:55:26.080Z,0.07
2017-01-01T08:56:25.994Z,0.02
2017-01-01T08:57:26.072Z,0.12
2017-01-01T08:58:25.995Z,-0.03
2017-01-01T08:59:26.175Z,0.01
2017-01-01T09:00:25.920Z,0.05
2017-01-01T09:01:26.037Z,0.08
2017-01-01T09:02:26.002Z,0.04
2017-01-01T09:03:26.057Z,0.01
2017-01-01T09:04:25.903Z,0.04
2017-01-01T09:05:26.194Z,0.05
2017-01-01T09:06:26.153Z,0.19
2017-01-01T09:07:26.021Z,0.15
2017-01-01T09:08:25.951Z,0.08
2017-01-01T09:09:26.117Z,0.17
2017-01-01T09:10:25.991Z,0.05
2017-01-01T09:11:26.044Z,0.15
2017-01-01T09:12:25.984Z,0.13
2017-01-01T09:13:26.102Z,0.13
2017-01-01T09:14:26.063Z,0.22
2017-01-01T09:15:26.051Z,0.28
2017-01-01T09:16:26.123Z,0.23
2017-01-01T09:17:26.325Z,0.19
2017-01-01T09:18:25.990Z,0.34
2017-01-01T09:19:26.051Z,0.48
2017-01-01T09:20:26.062Z,0.4
2017-01-01T09:21:25.985Z,0.43
2017-01-01T09:22:26.085Z,0.41
2017-01-01T09:23:26.145Z,0.44
2017-01-01T09:24:26.157Z,0.31
2017-01-01T09:25:26.001Z,0.43
2017-01-01T09:26:26.030Z,0.6
2017-01-01T09:27:26.060Z,0.74
2017-01-01T09:28:26.080Z,0.77
2017-01-01T09:29:25.963Z,0.71
2017-01-01T09:30:25.950Z,0.74
2017-01-01T09:31:25.997Z,0.7
2017-01-01T09:32:26.233Z,0.62
2017-01-01T09:33:26.158Z,0.6
2017-01-01T09:34:26.035Z,0.67
2017-01-01T09:35:26.212Z,0.67
2017-01-01T09:36:25.994Z,0.82
2017-01-01T09:37:26.876Z,0.8
2017-01-01T09:38:25.984Z,0.82
2017-01-01T09:39:26.150Z,0.86
2017-01-01T09:40:25.966Z,0.93
2017-01-01T09:41:26.204Z,0.86
2017-01-01T09:42:26.000Z,1
2017-01-01T09:43:26.102Z,1.08
2017-01-01T09:44:26.151Z,1.02
2017-01-01T09:45:26.051Z,1.14
2017-01-01T09:46:26.122Z,1.2
2017-01-01T09:47:26.107Z,1.28
2017-01-01T09:48:25.995Z,1.31
2017-01-01T09:49:26.168Z,1.34
2017-01-01T09:50:26.324Z,1.6
2017-01-01T09:51:25.976Z,1.68
2017-01-01T09:52:26.063Z,2.07
2017-01-01T09:53:26.117Z,2.32
2017-01-01T09:54:26.161Z,2.65
2017-01-01T09:55:26.050Z,2.77
2017-01-01T09:56:26.028Z,2.8
2017-01-01T09:57:26.224Z,2.97
2017-01-01T09:58:26.248Z,3.23
2017-01-01T09:59:26.175Z,3.35
2017-01-01T10:00:25.993Z,3.52
2017-01-01T10:01:26.084Z,3.72
2017-01-01T10:02:26.212Z,3.8
2017-01-01T10:03:26.274Z,3.89
2017-01-01T10:04:26.032Z,3.96
2017-01-01T10:05:26.077Z,4.13
2017-01-01T10:06:26.181Z,4.25
2017-01-01T10:07:26.276Z,4.39
2017-01-01T10:08:26.427Z,4.36
2017-01-01T10:09:26.250Z,4.43
2017-01-01T10:10:26.152Z,4.47
2017-01-01T10:11:26.119Z,4.38
2017-01-01T10:12:26.162Z,4.53
2017-01-01T10:13:26.112Z,4.53
2017-01-01T10:14:26.141Z,4.38
2017-01-01T10:15:26.199Z,4.07
2017-01-01T10:16:26.136Z,3.7
2017-01-01T10:17:26.108Z,3.67
2017-01-01T10:18:26.184Z,3.44
2017-01-01T10:19:26.210Z,3.12
2017-01-01T10:20:26.265Z,3.02
2017-01-01T10:21:26.231Z,2.97
2017-01-01T10:22:26.163Z,2.89
2017-01-01T10:23:26.378Z,2.86
2017-01-01T10:24:26.415Z,2.61
2017-01-01T10:25:26.141Z,2.53
2017-01-01T10:26:26.179Z,2.48
2017-01-01T10:27:26.371Z,2.44
2017-01-01T10:28:26.452Z,2.36
2017-01-01T10:29:26.311Z,2.3
2017-01-01T10:30:26.346Z,2.18
2017-01-01T10:31:26.221Z,2.14
2017-01-01T10:32:26.410Z,2.07
2017-01-01T10:33:26.330Z,2.07
2017-01-01T10:34:26.099Z,2
2017-01-01T10:35:26.236Z,1.89
2017-01-01T10:36:26.287Z,1.82
2017-01-01T10:37:26.226Z,1.79
2017-01-01T10:38:26.261Z,1.7
2017-01-01T10:39:26.153Z,1.79
2017-01-01T10:40:26.308Z,1.68
2017-01-01T10:41:26.207Z,1.67
2017-01-01T10:42:26.226Z,1.56
2017-01-01T10:43:26.319Z,1.56
2017-01-01T10:44:26.586Z,1.53
2017-01-01T10:45:26.402Z,1.36
2017-01-01T10:46:26.178Z,1.42
2017-01-01T10:47:26.206Z,1.38
2017-01-01T10:48:26.244Z,1.47
2017-01-01T10:49:26.375Z,1.49
2017-01-01T10:50:26.769Z,1.47
2017-01-01T10:51:26.837Z,1.43
2017-01-01T10:52:26.737Z,1.39
2017-01-01T10:53:26.596Z,1.49
2017-01-01T10:54:26.639Z,1.52
2017-01-01T10:55:26.584Z,1.47
2017-01-01T10:56:27.006Z,1.34
2017-01-01T10:57:26.812Z,1.39
2017-01-01T10:58:26.815Z,1.36
2017-01-01T10:59:26.382Z,1.44
2017-01-01T11:00:26.571Z,1.49
2017-01-01T11:01:27.435Z,1.54
2017-01-01T11:02:26.695Z,1.52
2017-01-01T11:03:26.509Z,1.49
2017-01-01T11:04:27.560Z,1.61
2017-01-01T11:05:26.401Z,1.6
2017-01-01T11:06:26.479Z,1.71
2017-01-01T11:07:26.625Z,1.65
2017-01-01T11:08:26.433Z,1.64
2017-01-01T11:09:26.442Z,1.65
2017-01-01T11:10:26.666Z,1.7
2017-01-01T11:11:26.643Z,1.7
2017-01-01T11:12:26.744Z,1.83
2017-01-01T11:13:26.675Z,1.7
2017-01-01T11:14:26.661Z,1.85
2017-01-01T11:15:26.764Z,1.88
2017-01-01T11:16:26.998Z,1.85
2017-01-01T11:17:27.162Z,2.02
2017-01-01T11:18:26.793Z,2.15
2017-01-01T11:19:26.607Z,2.27
2017-01-01T11:20:26.602Z,2.38
2017-01-01T11:21:26.635Z,2.51
2017-01-01T11:22:26.318Z,2.63
2017-01-01T11:23:26.823Z,2.84
2017-01-01T11:24:26.860Z,2.97
2017-01-01T11:25:26.391Z,2.9
2017-01-01T11:26:26.739Z,2.98
2017-01-01T11:27:26.686Z,3.02
2017-01-01T11:28:26.687Z,3.05
2017-01-01T11:29:26.606Z,3.3
2017-01-01T11:30:26.686Z,3.3
2017-01-01T11:31:26.779Z,3.35
2017-01-01T11:32:26.579Z,3.52
2017-01-01T11:33:26.650Z,3.54
2017-01-01T11:34:26.980Z,3.49
2017-01-01T11:39:43.291Z,3.64
2017-01-01T11:39:56.385Z,3.64
2017-01-01T11:40:56.084Z,3.56
2017-01-01T11:41:56.075Z,3.71
2017-01-01T11:42:56.279Z,3.56
2017-01-01T11:43:55.915Z,3.5
2017-01-01T11:45:05.992Z,3.56
2017-01-01T11:45:55.787Z,3.54
2017-01-01T11:46:56.349Z,3.54
2017-01-01T11:47:56.101Z,3.42
2017-01-01T11:48:56.290Z,3.41
2017-01-01T11:49:57.060Z,3.46
2017-01-01T11:50:56.169Z,3.42
2017-01-01T11:51:56.137Z,3.46
2017-01-01T11:52:56.259Z,3.35
2017-01-01T11:53:55.941Z,3.35
2017-01-01T11:54:56.105Z,3.34
2017-01-01T11:55:56.015Z,3.33
2017-01-01T11:56:55.856Z,3.41
2017-01-01T11:57:55.880Z,3.39
2017-01-01T11:58:55.678Z,3.52
2017-01-01T11:59:56.473Z,3.5
2017-01-01T12:00:55.813Z,3.52
2017-01-01T12:01:55.860Z,3.52
2017-01-01T12:02:55.812Z,3.53
2017-01-01T12:03:55.977Z,3.52
2017-01-01T12:04:55.815Z,3.52
2017-01-01T12:05:55.938Z,3.59
2017-01-01T12:06:55.982Z,3.57
2017-01-01T12:07:55.804Z,3.74
2017-01-01T12:08:55.728Z,3.62
2017-01-01T12:09:55.668Z,3.62
2017-01-01T12:10:55.616Z,3.68
2017-01-01T12:11:55.796Z,3.77
2017-01-01T12:12:55.642Z,3.75
2017-01-01T12:13:56.446Z,3.84
2017-01-01T12:14:55.885Z,3.89
2017-01-01T12:15:55.768Z,3.98
2017-01-01T12:16:55.746Z,3.84
2017-01-01T12:17:55.900Z,3.77
2017-01-01T12:18:55.943Z,3.92
2017-01-01T12:19:55.807Z,3.96
2017-01-01T12:20:55.587Z,3.89
2017-01-01T12:21:56.379Z,3.9
2017-01-01T12:22:55.699Z,3.96
2017-01-01T12:23:55.562Z,3.98
2017-01-01T12:24:55.693Z,3.96
2017-01-01T12:25:55.764Z,4
2017-01-01T12:26:55.725Z,3.99
2017-01-01T12:27:55.822Z,3.75
2017-01-01T12:28:55.739Z,3.77
2017-01-01T12:29:55.841Z,3.77
2017-01-01T12:30:55.944Z,3.86
2017-01-01T12:31:55.770Z,3.74
2017-01-01T12:32:56.001Z,3.8
2017-01-01T12:33:55.955Z,3.78
2017-01-01T12:34:56.849Z,3.95
2017-01-01T12:35:55.981Z,3.86
2017-01-01T12:36:56.226Z,3.8
2017-01-01T12:37:56.351Z,3.92
2017-01-01T12:38:56.242Z,3.77
2017-01-01T12:39:55.914Z,3.82
2017-01-01T12:40:55.870Z,3.98
2017-01-01T12:41:55.881Z,3.84
2017-01-01T12:42:56.087Z,3.88
2017-01-01T12:43:56.022Z,3.96
2017-01-01T12:44:55.746Z,3.9
2017-01-01T12:45:55.841Z,4
2017-01-01T12:46:55.763Z,3.99
2017-01-01T12:47:55.795Z,4.07
2017-01-01T12:48:55.779Z,4.14
2017-01-01T12:49:55.720Z,3.96
2017-01-01T12:50:55.681Z,4.06
2017-01-01T12:51:55.848Z,4.07
2017-01-01T12:52:55.985Z,4.02
2017-01-01T12:53:55.776Z,4.17
2017-01-01T12:54:56.079Z,4.13
2017-01-01T12:55:55.818Z,4.13
2017-01-01T12:56:55.899Z,4.26
2017-01-01T12:57:55.819Z,4.38
2017-01-01T12:58:55.960Z,4.42
2017-01-01T12:59:56.071Z,4.43
2017-01-01T13:00:56.106Z,4.43
2017-01-01T13:01:55.868Z,4.36
2017-01-01T13:02:57.309Z,4.35
2017-01-01T13:03:56.000Z,4.43
2017-01-01T13:04:55.928Z,4.42
2017-01-01T13:05:55.804Z,4.42
2017-01-01T13:06:56.505Z,4.43
2017-01-01T13:07:56.052Z,4.43
2017-01-01T13:08:56.095Z,4.49
2017-01-01T13:09:56.086Z,4.46
2017-01-01T13:10:58.195Z,4.54
2017-01-01T13:11:55.896Z,4.51
2017-01-01T13:12:56.032Z,4.47
2017-01-01T13:13:56.115Z,4.5
2017-01-01T13:14:56.160Z,4.44
2017-01-01T13:15:56.270Z,4.49